Time;durP1;ratioP1;P1;durP2;ratioP2;P2;SDS_P1;SDS_P2;PMS_P1;PMS_P2;Temp;Humidity;BMP_temperature;BMP_pressure;BME280_temperature;BME280_humidity;BME280_pressure;Samples;Min_cycle;Max_cycle;Signal;HPM_P1;HPM_P2
2022/03/11 00:01:47;;;;;;;25.27;9.48;;;;;;;6.83;44.36;101606.00;5027607;28;20025;-77
2022/03/11 00:04:12;;;;;;;22.30;9.27;;;;;;;6.83;43.98;101606.00;5054232;28;20032;-77
2022/03/11 00:06:38;;;;;;;25.20;9.27;;;;;;;6.80;44.29;101601.66;5036210;28;20423;-77
2022/03/11 00:09:03;;;;;;;20.60;8.80;;;;;;;6.81;44.05;101599.88;5042320;28;20108;-77
2022/03/11 00:11:29;;;;;;;24.00;8.63;;;;;;;6.78;44.35;101595.53;5017639;28;20395;-78
2022/03/11 00:13:54;;;;;;;25.58;8.45;;;;;;;6.76;44.11;101596.53;5034351;28;20048;-78
2022/03/11 00:16:20;;;;;;;21.38;8.07;;;;;;;6.75;44.45;101594.78;5040870;28;20058;-78
2022/03/11 00:18:49;;;;;;;24.40;9.90;;;;;;;6.74;44.58;101588.59;5032371;28;20447;-78
2022/03/11 00:21:14;;;;;;;32.47;8.85;;;;;;;6.72;44.16;101592.25;5040976;28;20114;-78
2022/03/11 00:23:42;;;;;;;27.08;9.73;;;;;;;6.70;44.71;101586.13;5029755;28;20112;-78
2022/03/11 00:26:08;;;;;;;23.65;9.35;;;;;;;6.68;44.50;101587.97;5039512;28;20033;-78
2022/03/11 00:28:33;;;;;;;22.88;8.35;;;;;;;6.67;44.56;101584.47;5025314;28;20052;-78
2022/03/11 00:30:58;;;;;;;23.13;8.95;;;;;;;6.65;44.92;101581.00;5060943;28;20063;-78
2022/03/11 00:33:24;;;;;;;23.15;8.60;;;;;;;6.63;44.76;101583.75;5062590;28;20028;-78
2022/03/11 00:35:49;;;;;;;24.77;9.32;;;;;;;6.59;44.89;101581.28;5052664;28;20183;-78
2022/03/11 00:38:14;;;;;;;25.67;9.93;;;;;;;6.56;45.18;101582.28;5025570;28;20447;-78
2022/03/11 00:40:39;;;;;;;22.80;9.85;;;;;;;6.52;45.13;101578.00;5050249;28;20025;-78
2022/03/11 00:43:05;;;;;;;23.67;9.85;;;;;;;6.48;45.41;101577.25;5032953;28;20053;-78
2022/03/11 00:45:30;;;;;;;25.77;9.98;;;;;;;6.45;45.20;101568.53;5014574;28;20476;-78
2022/03/11 00:47:55;;;;;;;22.33;9.20;;;;;;;6.43;45.74;101581.09;5045086;28;20032;-78
2022/03/11 00:50:22;;;;;;;22.38;9.40;;;;;;;6.43;45.77;101575.75;5025792;28;20027;-78
2022/03/11 00:52:47;;;;;;;22.25;8.55;;;;;;;6.37;45.43;101568.00;5011428;28;20022;-78
2022/03/11 00:55:12;;;;;;;25.05;10.50;;;;;;;6.36;45.77;101571.63;5048361;28;20458;-78
2022/03/11 00:57:38;;;;;;;23.90;9.65;;;;;;;6.32;45.85;101576.22;5047473;28;20388;-78
2022/03/11 01:00:04;;;;;;;23.85;9.43;;;;;;;6.28;45.87;101563.94;5014953;28;20500;-78
2022/03/11 01:02:33;;;;;;;24.48;10.52;;;;;;;6.24;46.39;101565.88;5046638;28;20052;-78
2022/03/11 01:04:58;;;;;;;24.98;10.38;;;;;;;6.21;46.22;101562.44;5065643;28;20116;-78
2022/03/11 01:07:24;;;;;;;22.90;9.13;;;;;;;6.17;46.42;101555.53;5042007;28;20542;-78
2022/03/11 01:09:49;;;;;;;22.50;10.82;;;;;;;6.14;46.66;101561.88;5051089;28;20094;-78
2022/03/11 01:12:14;;;;;;;25.38;9.95;;;;;;;6.10;46.49;101554.94;5050506;28;20028;-78
2022/03/11 01:14:39;;;;;;;23.90;9.85;;;;;;;6.09;46.63;101548.72;5040644;28;20065;-78
2022/03/11 01:17:05;;;;;;;23.52;9.93;;;;;;;6.06;46.15;101547.97;5042739;28;20474;-78
2022/03/11 01:19:30;;;;;;;23.05;8.55;;;;;;;6.03;46.81;101545.44;5030500;28;20032;-78
2022/03/11 01:21:55;;;;;;;25.33;9.95;;;;;;;6.02;46.96;101547.25;5045609;28;20021;-78
2022/03/11 01:24:21;;;;;;;24.48;9.73;;;;;;;5.99;46.67;101541.16;5034487;28;20022;-78
2022/03/11 01:26:46;;;;;;;27.60;10.55;;;;;;;5.94;47.03;101534.22;5051309;28;20031;-78
2022/03/11 01:29:11;;;;;;;22.92;9.40;;;;;;;5.91;46.99;101529.00;5031113;28;20112;-78
2022/03/11 01:31:37;;;;;;;24.83;9.15;;;;;;;5.90;46.88;101529.06;5041073;28;20017;-78
2022/03/11 01:34:02;;;;;;;21.85;9.60;;;;;;;5.86;47.23;101520.34;5059045;28;20023;-78
2022/03/11 01:36:27;;;;;;;24.38;9.63;;;;;;;5.84;47.25;101519.53;5033425;28;20036;-78
2022/03/11 01:38:54;;;;;;;25.20;10.65;;;;;;;5.85;46.96;101518.59;5051689;28;20017;-78
2022/03/11 01:41:19;;;;;;;25.35;10.20;;;;;;;5.84;47.13;101527.56;5044613;28;20049;-78
2022/03/11 01:43:58;;;;;;;23.98;9.45;;;;;;;5.82;47.32;101512.53;5038100;28;20104;-78
2022/03/11 01:46:24;;;;;;;23.20;8.90;;;;;;;5.77;47.28;101507.41;5045804;28;20401;-78
2022/03/11 01:48:49;;;;;;;25.30;9.98;;;;;;;5.74;47.55;101512.84;5046731;28;20033;-78
2022/03/11 01:51:15;;;;;;;23.90;9.40;;;;;;;5.73;47.37;101495.13;5026386;28;20156;-78
2022/03/11 01:53:40;;;;;;;25.13;10.10;;;;;;;5.69;47.68;101491.69;5039358;28;20029;-78
2022/03/11 01:56:06;;;;;;;23.85;10.45;;;;;;;5.71;47.55;101491.63;5041444;28;20556;-78
2022/03/11 01:58:32;;;;;;;27.30;11.05;;;;;;;5.69;46.98;101486.38;5045058;28;20101;-78
2022/03/11 02:00:57;;;;;;;23.17;9.32;;;;;;;5.71;47.24;101483.63;5051955;28;20514;-78
2022/03/11 02:03:23;;;;;;;27.42;9.43;;;;;;;5.71;47.67;101480.97;5053905;28;20131;-78
2022/03/11 02:05:48;;;;;;;24.50;10.27;;;;;;;5.69;47.26;101480.19;5042425;28;20035;-78
2022/03/11 02:08:14;;;;;;;24.58;9.52;;;;;;;5.66;47.46;101478.50;5031114;28;20045;-78
2022/03/11 02:10:39;;;;;;;23.65;9.25;;;;;;;5.65;47.12;101479.44;5040995;28;20537;-78
2022/03/11 02:13:05;;;;;;;24.63;10.32;;;;;;;5.60;47.25;101468.97;5050266;28;20476;-78
2022/03/11 02:15:31;;;;;;;23.20;10.02;;;;;;;5.58;47.23;101468.16;5049417;28;20049;-78
2022/03/11 02:17:56;;;;;;;31.08;10.27;;;;;;;5.58;47.54;101459.31;5050173;28;20044;-78
2022/03/11 02:20:22;;;;;;;24.63;9.55;;;;;;;5.56;47.22;101458.50;5049319;28;20052;-78
2022/03/11 02:22:50;;;;;;;25.60;9.90;;;;;;;5.54;47.47;101453.22;5035676;28;20025;-78
2022/03/11 02:25:15;;;;;;;22.40;9.98;;;;;;;5.54;46.79;101455.91;5038190;28;20032;-78
2022/03/11 02:27:42;;;;;;;22.88;9.90;;;;;;;5.54;46.97;101453.22;5024662;28;20753;-78
2022/03/11 02:30:22;;;;;;;23.98;9.98;;;;;;;5.53;47.03;101442.63;5048815;28;20523;-78
2022/03/11 02:32:48;;;;;;;23.67;9.45;;;;;;;5.51;47.13;101440.03;5044728;28;20468;-78
2022/03/11 02:35:15;;;;;;;23.60;10.10;;;;;;;5.52;47.03;101433.78;5059204;28;20036;-77
2022/03/11 02:37:41;;;;;;;22.83;9.38;;;;;;;5.54;46.75;101434.56;5042828;28;20028;-77
2022/03/11 02:40:07;;;;;;;24.90;9.70;;;;;;;5.54;46.96;101426.56;5051166;28;20048;-77
2022/03/11 02:42:32;;;;;;;22.92;9.07;;;;;;;5.56;46.39;101431.81;5049690;28;20033;-78
2022/03/11 02:45:02;;;;;;;21.42;8.90;;;;;;;5.55;46.63;101422.97;5042331;28;20029;-78
2022/03/11 02:47:27;;;;;;;;;;;;;;;5.62;46.55;101426.22;5043673;28;20043;-78
2022/03/11 02:49:53;;;;;;;22.98;9.02;;;;;;;5.55;46.28;101425.63;5043068;28;19909;-78
2022/03/11 02:52:18;;;;;;;22.95;8.80;;;;;;;5.55;46.52;101430.09;5031863;28;20033;-78
2022/03/11 02:54:43;;;;;;;27.05;10.63;;;;;;;5.55;46.61;101428.31;5024478;28;20740;-78
2022/03/11 02:57:08;;;;;;;22.30;8.05;;;;;;;5.56;46.61;101429.16;5032643;28;20040;-78
2022/03/11 02:59:34;;;;;;;23.98;9.98;;;;;;;5.52;46.53;101425.78;5064271;28;20036;-78
2022/03/11 03:01:59;;;;;;;23.75;9.27;;;;;;;5.52;46.32;101417.78;5056703;28;20039;-78
2022/03/11 03:04:24;;;;;;;24.13;9.25;;;;;;;5.49;46.23;101415.25;5034575;28;20432;-78
2022/03/11 03:06:50;;;;;;;22.63;8.45;;;;;;;5.50;46.55;101414.28;5063251;28;20056;-78
2022/03/11 03:09:15;;;;;;;23.92;10.00;;;;;;;5.49;46.44;101415.25;5065136;28;20028;-78
2022/03/11 03:11:40;;;;;;;23.90;10.18;;;;;;;5.48;46.65;101413.50;5046461;28;20032;-78
2022/03/11 03:14:05;;;;;;;22.13;8.98;;;;;;;5.48;46.28;101416.16;5031136;28;20423;-78
2022/03/11 03:16:31;;;;;;;22.30;9.60;;;;;;;5.46;46.23;101411.81;5045952;28;20029;-78
2022/03/11 03:18:56;;;;;;;24.42;9.70;;;;;;;5.43;46.31;101411.03;5030330;28;20037;-78
2022/03/11 03:21:22;;;;;;;21.77;8.50;;;;;;;5.42;46.20;101416.44;5040148;28;20029;-78
2022/03/11 03:23:47;;;;;;;22.23;9.10;;;;;;;5.42;46.37;101419.09;5027761;28;20035;-78
2022/03/11 03:26:13;;;;;;;21.35;9.02;;;;;;;5.43;46.35;101413.72;5052325;28;20062;-78
2022/03/11 03:28:38;;;;;;;21.63;9.13;;;;;;;5.41;45.78;101415.56;5032477;28;20481;-78
2022/03/11 03:31:04;;;;;;;21.45;9.25;;;;;;;5.41;46.05;101412.88;5031918;28;20060;-78
2022/03/11 03:33:31;;;;;;;22.65;9.20;;;;;;;5.42;45.93;101408.44;5039758;28;20101;-78
2022/03/11 03:35:56;;;;;;;23.17;9.15;;;;;;;5.42;46.37;101403.09;5045343;28;20036;-78
2022/03/11 03:38:22;;;;;;;24.55;8.93;;;;;;;5.41;45.99;101409.38;5034401;28;20028;-78
2022/03/11 03:40:47;;;;;;;22.95;9.07;;;;;;;5.42;45.93;101403.09;5044510;28;20024;-78
2022/03/11 03:43:13;;;;;;;23.27;8.80;;;;;;;5.39;46.03;101409.44;5049778;28;20430;-78
2022/03/11 03:45:40;;;;;;;22.48;8.43;;;;;;;5.39;45.74;101397.91;5027553;28;20028;-78
2022/03/11 03:48:05;;;;;;;24.48;9.57;;;;;;;5.39;45.76;101403.25;5024462;28;20040;-78
2022/03/11 03:50:31;;;;;;;20.38;8.20;;;;;;;5.39;46.05;101398.78;5036342;28;20024;-79
2022/03/11 03:52:56;;;;;;;23.33;9.32;;;;;;;5.38;45.66;101391.69;5049214;28;20040;-78
2022/03/11 03:55:21;;;;;;;22.38;9.32;;;;;;;5.36;46.13;101400.69;5041431;28;20029;-78
2022/03/11 03:57:47;;;;;;;23.95;8.65;;;;;;;5.35;45.99;101396.31;5043841;28;20104;-78
2022/03/11 04:00:13;;;;;;;22.42;8.43;;;;;;;5.33;45.91;101399.03;5029684;28;20469;-78
2022/03/11 04:02:48;;;;;;;21.80;9.60;;;;;;;5.32;46.45;101393.78;5042549;28;20029;-78
2022/03/11 04:05:14;;;;;;;23.15;7.63;;;;;;;5.29;46.52;101399.25;5018565;28;20039;-78
2022/03/11 04:07:44;;;;;;;21.90;8.77;;;;;;;5.29;46.48;101396.56;5059787;28;20050;-78
2022/03/11 04:10:11;;;;;;;25.33;9.40;;;;;;;5.27;46.23;101393.09;5029319;28;20025;-78
2022/03/11 04:12:37;;;;;;;23.55;9.38;;;;;;;5.24;46.25;101391.41;5028612;28;20052;-78
2022/03/11 04:15:04;;;;;;;23.60;8.98;;;;;;;5.22;46.15;101398.63;5009922;28;20034;-77
2022/03/11 04:17:29;;;;;;;25.35;9.45;;;;;;;5.20;46.07;101396.03;5010793;28;20448;-77
2022/03/11 04:19:54;;;;;;;20.98;8.82;;;;;;;5.19;46.46;101388.09;5009615;28;20050;-77
2022/03/11 04:22:19;;;;;;;23.60;8.52;;;;;;;5.18;46.05;101384.56;5011739;28;20581;-77
2022/03/11 04:24:45;;;;;;;21.40;8.77;;;;;;;5.19;45.84;101386.28;5027632;28;20076;-77
2022/03/11 04:27:10;;;;;;;21.98;7.63;;;;;;;5.18;46.24;101381.91;5017796;28;20029;-77
2022/03/11 04:29:37;;;;;;;21.38;9.50;;;;;;;5.19;46.21;101383.63;5026355;28;20036;-77
2022/03/11 04:32:03;;;;;;;21.55;7.93;;;;;;;5.19;46.17;101372.97;5058158;28;20018;-77
2022/03/11 04:34:28;;;;;;;20.88;7.75;;;;;;;5.18;46.30;101371.25;5033499;28;20499;-77
2022/03/11 04:36:55;;;;;;;23.50;7.97;;;;;;;5.16;45.87;101369.56;5055542;28;20041;-77
2022/03/11 04:39:21;;;;;;;22.88;9.10;;;;;;;5.17;45.99;101371.28;5024260;28;20021;-78
2022/03/11 04:41:46;;;;;;;24.70;8.30;;;;;;;5.16;46.33;101364.25;5024532;28;20035;-78
2022/03/11 04:44:12;;;;;;;21.85;7.75;;;;;;;5.16;46.06;101374.91;5010180;28;20032;-78
2022/03/11 04:46:37;;;;;;;21.63;7.50;;;;;;;5.16;46.20;101378.41;5022727;28;20037;-78
2022/03/11 04:49:03;;;;;;;22.40;7.70;;;;;;;5.14;46.26;101371.41;5013716;28;20029;-78
2022/03/11 04:51:28;;;;;;;24.50;7.95;;;;;;;5.14;45.99;101374.06;5026463;28;20025;-78
2022/03/11 04:53:55;;;;;;;24.92;8.75;;;;;;;5.14;45.95;101374.06;5021099;28;20114;-77
2022/03/11 04:56:20;;;;;;;20.05;8.27;;;;;;;5.14;45.79;101366.09;5028109;28;20052;-77
2022/03/11 04:58:45;;;;;;;21.23;8.02;;;;;;;5.14;45.71;101371.41;5049593;28;20026;-77
2022/03/11 05:01:10;;;;;;;20.45;8.55;;;;;;;5.14;45.88;101366.09;5017147;28;20408;-77
2022/03/11 05:03:36;;;;;;;23.85;7.93;;;;;;;5.13;45.57;101369.69;5036708;28;20029;-77
2022/03/11 05:06:01;;;;;;;20.45;7.70;;;;;;;5.13;45.84;101375.88;5026958;28;20033;-77
2022/03/11 05:08:26;;;;;;;21.33;8.55;;;;;;;5.14;45.91;101364.31;5040757;28;20132;-77
2022/03/11 05:10:52;;;;;;;22.48;7.53;;;;;;;5.15;46.16;101362.50;5041690;28;20389;-78
2022/03/11 05:13:17;;;;;;;22.75;7.45;;;;;;;5.16;45.52;101370.44;5028940;28;20032;-78
2022/03/11 05:15:42;;;;;;;23.35;8.35;;;;;;;5.16;45.96;101359.75;5052705;28;20029;-78
2022/03/11 05:18:08;;;;;;;20.15;7.60;;;;;;;5.14;45.73;101358.97;5038110;28;20033;-78
2022/03/11 05:20:34;;;;;;;20.98;7.78;;;;;;;5.13;45.71;101357.22;5015708;28;20075;-77
2022/03/11 05:22:59;;;;;;;20.00;7.70;;;;;;;5.13;46.24;101359.91;5034062;28;20075;-77
2022/03/11 05:25:25;;;;;;;20.50;7.72;;;;;;;5.14;45.80;101358.97;5059900;28;20037;-77
2022/03/11 05:27:51;;;;;;;21.35;8.40;;;;;;;5.10;46.48;101354.72;5030901;28;20069;-77
2022/03/11 05:30:17;;;;;;;22.23;8.38;;;;;;;5.06;46.23;101355.75;5021789;28;20028;-77
2022/03/11 05:32:49;;;;;;;21.67;7.38;;;;;;;5.05;46.08;101362.00;5015676;28;20029;-77
2022/03/11 05:35:15;;;;;;;21.90;8.52;;;;;;;5.02;46.51;101356.81;5055869;28;20025;-77
2022/03/11 05:37:41;;;;;;;23.08;8.05;;;;;;;5.00;46.60;101364.00;5041742;28;20383;-78
2022/03/11 05:40:07;;;;;;;23.55;8.80;;;;;;;4.99;46.60;101364.94;5021101;28;20028;-77
2022/03/11 05:42:32;;;;;;;21.02;8.05;;;;;;;4.99;46.40;101364.94;5021636;28;20017;-77
2022/03/11 05:44:58;;;;;;;21.48;7.85;;;;;;;4.98;47.01;101355.19;5028658;28;20477;-77
2022/03/11 05:47:23;;;;;;;22.00;8.30;;;;;;;4.98;46.92;101360.53;5035956;28;20033;-77
2022/03/11 05:49:48;;;;;;;21.20;8.52;;;;;;;4.94;46.60;101359.81;5051186;28;20052;-77
2022/03/11 05:52:14;;;;;;;23.73;8.50;;;;;;;4.93;46.82;101355.41;5046700;28;20492;-77
2022/03/11 05:54:39;;;;;;;22.17;8.68;;;;;;;4.94;46.79;101354.47;5048391;28;20033;-77
2022/03/11 05:57:04;;;;;;;21.77;8.52;;;;;;;4.94;47.37;101349.16;5037150;28;20116;-77
2022/03/11 05:59:31;;;;;;;23.73;8.13;;;;;;;4.93;46.67;101355.41;5029733;28;20033;-77
2022/03/11 06:01:57;;;;;;;21.08;7.18;;;;;;;4.90;47.46;101351.09;5058240;28;20024;-77
2022/03/11 06:04:22;;;;;;;21.85;8.73;;;;;;;4.89;47.23;101343.13;5060894;28;20017;-77
2022/03/11 06:06:47;;;;;;;21.63;8.25;;;;;;;4.89;47.43;101345.78;5045523;28;20033;-77
2022/03/11 06:09:14;;;;;;;23.67;10.30;;;;;;;4.87;47.78;101337.88;5020852;28;20022;-77
2022/03/11 06:11:39;;;;;;;21.42;7.88;;;;;;;4.88;47.74;101341.41;5032047;28;20030;-77
2022/03/11 06:14:05;;;;;;;20.95;7.43;;;;;;;4.87;47.87;101342.34;5040505;28;20033;-77
2022/03/11 06:16:30;;;;;;;19.67;8.25;;;;;;;4.87;48.11;101343.19;5038076;28;20071;-77
2022/03/11 06:18:56;;;;;;;23.33;9.05;;;;;;;4.87;48.33;101343.19;5047398;28;20120;-77
2022/03/11 06:21:21;;;;;;;22.00;7.40;;;;;;;4.89;47.99;101346.69;5017329;28;20021;-77
2022/03/11 06:23:46;;;;;;;19.48;7.53;;;;;;;4.90;48.13;101348.44;5064868;28;20158;-77
2022/03/11 06:26:12;;;;;;;24.25;8.82;;;;;;;4.90;48.25;101352.88;5048593;28;20025;-77
2022/03/11 06:28:37;;;;;;;23.92;9.00;;;;;;;4.91;48.09;101357.28;5042161;28;20504;-78
2022/03/11 06:31:02;;;;;;;23.63;8.63;;;;;;;4.92;48.46;101355.47;5052166;28;20128;-78
2022/03/11 06:33:28;;;;;;;24.55;9.88;;;;;;;4.92;48.44;101344.81;5020851;28;20024;-77
2022/03/11 06:35:53;;;;;;;22.50;8.35;;;;;;;4.95;48.00;101350.00;5050272;28;20491;-77
2022/03/11 06:38:18;;;;;;;21.35;8.43;;;;;;;4.97;48.17;101348.16;5025435;28;20059;-77
2022/03/11 06:40:44;;;;;;;21.27;8.65;;;;;;;4.98;48.66;101349.88;5020830;28;20087;-78
2022/03/11 06:43:09;;;;;;;20.75;8.32;;;;;;;5.00;48.73;101351.56;5045348;28;20036;-78
2022/03/11 06:45:34;;;;;;;19.02;7.55;;;;;;;5.02;48.53;101354.16;5050392;28;20476;-78
2022/03/11 06:47:59;;;;;;;23.20;8.07;;;;;;;5.02;48.50;101349.72;5037487;28;20543;-78
2022/03/11 06:50:25;;;;;;;23.05;9.38;;;;;;;5.05;48.59;101346.03;5034519;28;20036;-78
2022/03/11 06:52:51;;;;;;;22.42;9.05;;;;;;;5.04;48.69;101344.31;5021515;28;20049;-78
2022/03/11 06:55:16;;;;;;;23.35;8.45;;;;;;;5.07;48.45;101355.69;5032828;28;20021;-77
2022/03/11 06:57:42;;;;;;;23.92;8.75;;;;;;;5.11;48.55;101353.78;5029579;28;20126;-77
2022/03/11 07:00:08;;;;;;;22.83;9.32;;;;;;;5.12;49.05;101342.16;5047772;28;20024;-78
2022/03/11 07:02:36;;;;;;;22.60;9.27;;;;;;;5.17;48.25;101340.19;5059260;28;20017;-78
2022/03/11 07:05:02;;;;;;;22.02;9.85;;;;;;;5.20;48.56;101342.72;5067632;28;20111;-78
2022/03/11 07:07:29;;;;;;;24.42;9.55;;;;;;;5.22;48.37;101332.84;5043864;28;20407;-78
2022/03/11 07:09:54;;;;;;;20.52;8.52;;;;;;;5.25;48.04;101332.72;5060169;28;20099;-78
2022/03/11 07:12:20;;;;;;;22.27;9.20;;;;;;;5.30;48.62;101336.97;5045617;28;20059;-78
2022/03/11 07:14:45;;;;;;;21.95;9.10;;;;;;;5.33;48.41;101320.84;5030548;28;20507;-78
2022/03/11 07:17:10;;;;;;;24.48;10.35;;;;;;;5.36;48.03;101316.28;5048737;28;20017;-78
2022/03/11 07:19:36;;;;;;;20.85;8.73;;;;;;;5.40;48.49;101330.31;5051950;28;20024;-78
2022/03/11 07:22:04;;;;;;;23.42;9.02;;;;;;;5.44;48.57;101326.59;5049931;28;20388;-78
2022/03/11 07:24:30;;;;;;;20.70;8.30;;;;;;;5.48;48.22;101322.88;5050986;28;20025;-78
2022/03/11 07:26:55;;;;;;;24.05;10.38;;;;;;;5.52;48.04;101327.13;5046421;28;20384;-80
2022/03/11 07:29:21;;;;;;;23.17;9.60;;;;;;;5.58;48.20;101334.00;5041729;28;20056;-78
2022/03/11 07:31:46;;;;;;;21.35;8.82;;;;;;;5.62;47.95;101334.72;5043592;28;20025;-79
2022/03/11 07:34:12;;;;;;;21.65;8.65;;;;;;;5.66;47.96;101330.97;5049428;28;20107;-78
2022/03/11 07:36:38;;;;;;;21.85;9.10;;;;;;;5.70;48.17;101338.75;5038283;28;20086;-78
2022/03/11 07:39:05;;;;;;;23.30;9.30;;;;;;;5.75;47.66;101327.88;5051742;28;20029;-79
2022/03/11 07:41:31;;;;;;;24.20;9.13;;;;;;;5.76;48.02;101338.47;5023915;28;20756;-78
2022/03/11 07:43:56;;;;;;;24.83;9.77;;;;;;;5.82;48.02;101328.47;5031745;28;20526;-78
2022/03/11 07:46:23;;;;;;;23.38;9.07;;;;;;;5.85;47.79;101331.00;5065479;28;20040;-80
2022/03/11 07:48:49;;;;;;;26.20;10.02;;;;;;;5.88;47.86;101328.19;5051614;28;20027;-80
2022/03/11 07:51:15;;;;;;;22.67;9.07;;;;;;;5.95;48.32;101330.50;5062280;28;20111;-72
2022/03/11 07:53:40;;;;;;;23.30;9.43;;;;;;;6.02;47.99;101323.13;5058140;28;20532;-72
2022/03/11 07:56:07;;;;;;;24.65;10.65;;;;;;;6.08;47.97;101321.97;5038231;28;20040;-72
2022/03/11 07:58:32;;;;;;;24.15;10.05;;;;;;;6.12;47.93;101318.22;5057114;28;20107;-72
2022/03/11 08:00:58;;;;;;;24.17;11.13;;;;;;;6.16;47.78;101309.13;5046375;28;20144;-72
2022/03/11 08:03:23;;;;;;;23.88;10.50;;;;;;;6.22;48.00;101313.31;5055275;28;20029;-72
2022/03/11 08:05:49;;;;;;;23.60;9.55;;;;;;;6.26;48.05;101305.06;5061096;28;20033;-72
2022/03/11 08:08:14;;;;;;;25.00;9.88;;;;;;;6.30;48.26;101301.31;5055928;28;20049;-72
2022/03/11 08:10:39;;;;;;;22.77;9.68;;;;;;;6.37;47.71;101285.88;5044850;28;20526;-72
2022/03/11 08:13:09;;;;;;;23.35;9.38;;;;;;;6.42;47.60;101305.19;5025308;28;20033;-79
2022/03/11 08:15:35;;;;;;;26.30;11.63;;;;;;;6.46;47.44;101297.91;5044693;28;20262;-80
2022/03/11 08:18:01;;;;;;;25.27;10.57;;;;;;;6.50;47.78;101307.50;5044959;28;20029;-79
2022/03/11 08:20:27;;;;;;;25.27;10.43;;;;;;;6.52;47.67;101310.97;5056011;28;20491;-78
2022/03/11 08:22:52;;;;;;;23.02;9.77;;;;;;;6.57;47.40;101308.06;5030949;28;20036;-79
2022/03/11 08:25:18;;;;;;;24.13;10.75;;;;;;;6.61;47.17;101315.84;5040584;28;20483;-79
2022/03/11 08:27:44;;;;;;;25.45;10.68;;;;;;;6.65;47.77;101300.53;5043499;28;20032;-79
2022/03/11 08:30:11;;;;;;;23.50;10.10;;;;;;;6.69;47.57;101303.91;5056500;28;20062;-79
2022/03/11 08:32:38;;;;;;;22.75;9.98;;;;;;;6.75;47.32;101295.59;5045645;28;20032;-79
2022/03/11 08:35:04;;;;;;;24.45;11.07;;;;;;;6.79;47.71;101297.16;5043053;28;20033;-79
2022/03/11 08:37:29;;;;;;;24.52;9.77;;;;;;;6.86;47.49;101295.06;5055502;28;20509;-79
2022/03/11 08:39:55;;;;;;;23.42;9.85;;;;;;;6.91;47.42;101279.66;5030289;28;20174;-79
2022/03/11 08:42:20;;;;;;;22.92;9.32;;;;;;;6.95;46.79;101289.25;5028889;28;20036;-79
2022/03/11 08:44:46;;;;;;;25.58;10.93;;;;;;;6.99;47.66;101289.00;5051740;28;20491;-78
2022/03/11 08:47:12;;;;;;;24.38;11.20;;;;;;;7.04;47.42;101285.22;5051409;28;20032;-79
2022/03/11 08:49:37;;;;;;;23.23;10.25;;;;;;;7.08;47.62;101293.00;5050252;28;20029;-78
2022/03/11 08:52:03;;;;;;;23.55;10.30;;;;;;;7.15;47.30;101277.53;5050487;28;20551;-78
2022/03/11 08:54:28;;;;;;;24.63;10.48;;;;;;;7.22;47.28;101284.28;5031367;28;20133;-77
2022/03/11 08:56:54;;;;;;;27.23;10.52;;;;;;;7.28;47.24;101283.13;5049593;28;20470;-78
2022/03/11 08:59:20;;;;;;;24.88;11.70;;;;;;;7.34;47.29;101286.31;5030240;28;20048;-77
2022/03/11 09:01:45;;;;;;;23.98;9.63;;;;;;;7.41;47.56;101277.94;5047613;28;20040;-76
2022/03/11 09:04:11;;;;;;;28.88;11.43;;;;;;;7.47;47.23;101281.19;5024608;28;20032;-76
2022/03/11 09:06:36;;;;;;;26.65;10.65;;;;;;;7.52;47.37;101280.94;5063926;28;20025;-76
2022/03/11 09:09:02;;;;;;;25.63;11.55;;;;;;;7.56;46.99;101271.81;5049895;28;20024;-77
2022/03/11 09:11:28;;;;;;;22.65;10.23;;;;;;;7.63;47.36;101267.84;5048375;28;20044;-77
2022/03/11 09:13:53;;;;;;;22.73;10.00;;;;;;;7.69;47.28;101266.66;5048718;28;20477;-77
2022/03/11 09:16:18;;;;;;;23.52;10.80;;;;;;;7.75;47.19;101265.47;5049059;28;20037;-77
2022/03/11 09:18:43;;;;;;;24.98;10.18;;;;;;;7.80;47.20;101268.72;5034953;28;20033;-77
2022/03/11 09:21:09;;;;;;;27.05;11.48;;;;;;;7.87;47.66;101270.13;5032731;28;20044;-77
2022/03/11 09:23:34;;;;;;;27.55;10.88;;;;;;;7.90;47.38;101259.25;5050595;28;20041;-77
2022/03/11 09:25:59;;;;;;;24.27;10.95;;;;;;;7.98;47.07;101259.69;5031943;28;20021;-77
2022/03/11 09:28:25;;;;;;;23.83;10.48;;;;;;;8.04;47.59;101255.81;5032751;28;20024;-77
2022/03/11 09:30:50;;;;;;;24.67;10.43;;;;;;;8.09;47.09;101256.41;5033536;28;20025;-77
2022/03/11 09:33:16;;;;;;;26.90;10.70;;;;;;;8.15;47.10;101249.84;5054038;28;20048;-77
2022/03/11 09:35:41;;;;;;;28.67;10.85;;;;;;;8.22;47.22;101246.72;5071679;28;20533;-78
2022/03/11 09:38:07;;;;;;;25.45;11.45;;;;;;;8.31;47.22;101256.03;5053187;28;20033;-77
2022/03/11 09:40:33;;;;;;;25.27;11.88;;;;;;;8.37;46.96;101246.78;5032713;28;20383;-77
2022/03/11 09:43:00;;;;;;;24.50;11.38;;;;;;;8.44;46.81;101245.53;5038907;28;20022;-78
2022/03/11 09:45:26;;;;;;;26.85;10.27;;;;;;;8.48;46.87;101239.03;5033994;28;20496;-78
2022/03/11 09:47:53;;;;;;;24.50;11.05;;;;;;;8.54;47.19;101233.31;5031069;28;20032;-77
2022/03/11 09:50:19;;;;;;;25.35;10.75;;;;;;;8.64;47.06;101247.03;5050525;28;20032;-77
2022/03/11 09:52:47;;;;;;;25.50;10.82;;;;;;;8.69;46.89;101228.00;5051022;28;20035;-77
2022/03/11 09:55:12;;;;;;;25.65;10.77;;;;;;;8.77;47.18;101215.03;5052218;28;20044;-78
2022/03/11 09:57:38;;;;;;;23.55;10.20;;;;;;;8.84;46.93;101207.47;5049586;28;20389;-77
2022/03/11 10:00:05;;;;;;;25.45;11.35;;;;;;;8.90;46.51;101209.78;5050899;28;20048;-77
2022/03/11 10:02:30;;;;;;;24.02;11.02;;;;;;;8.94;46.36;101219.34;5031440;28;20078;-78
2022/03/11 10:04:58;;;;;;;25.08;9.88;;;;;;;9.00;46.14;101210.94;5067377;28;20024;-77
2022/03/11 10:07:28;;;;;;;24.88;11.07;;;;;;;9.07;46.58;101214.13;5054230;28;20045;-77
2022/03/11 10:10:09;;;;;;;28.13;11.93;;;;;;;9.12;46.39;101203.97;5050931;28;20029;-77
2022/03/11 10:12:44;;;;;;;26.48;10.70;;;;;;;9.21;47.60;101200.72;5048659;28;20124;-78
2022/03/11 10:15:10;;;;;;;23.63;11.30;;;;;;;9.30;47.46;101201.09;5033288;28;20033;-78
2022/03/11 10:17:43;;;;;;;25.23;11.90;;;;;;;9.34;46.28;101199.94;5032359;28;20029;-78
2022/03/11 10:20:11;;;;;;;25.92;10.65;;;;;;;9.40;46.31;101200.44;5048405;28;20029;-78
2022/03/11 10:22:37;;;;;;;25.27;11.15;;;;;;;9.47;46.59;101192.00;5036003;28;20029;-78
2022/03/11 10:25:09;;;;;;;23.15;11.35;;;;;;;9.53;46.95;101181.75;5049742;28;20029;-78
2022/03/11 10:27:54;;;;;;;23.40;11.18;;;;;;;9.59;46.81;101191.22;5031471;28;20488;-78
2022/03/11 10:30:20;;;;;;;25.55;11.45;;;;;;;9.73;47.37;101195.72;5030938;28;20053;-78
2022/03/11 10:32:56;;;;;;;23.83;10.60;;;;;;;9.84;47.54;101189.63;5049516;28;20107;-78
2022/03/11 10:35:36;;;;;;;25.70;10.27;;;;;;;9.88;47.29;101186.69;5044561;28;20037;-77
2022/03/11 10:38:10;;;;;;;23.65;10.50;;;;;;;9.99;46.37;101169.84;5047744;28;20032;-78
2022/03/11 10:40:40;;;;;;;25.95;11.05;;;;;;;10.09;47.05;101160.22;5046797;28;20044;-77
2022/03/11 10:43:14;;;;;;;24.02;10.40;;;;;;;10.22;46.58;101159.41;5028423;28;20029;-77
2022/03/11 10:45:54;;;;;;;23.55;10.20;;;;;;;10.30;46.31;101163.28;5047885;28;20357;-78
2022/03/11 10:48:49;;;;;;;23.58;10.48;;;;;;;10.35;46.53;101154.94;5047537;28;20507;-77
2022/03/11 10:51:26;;;;;;;25.92;10.88;;;;;;;10.44;45.92;101162.41;5044500;28;20064;-77
2022/03/11 10:53:52;;;;;;;26.17;10.98;;;;;;;10.53;46.01;101151.97;5046660;28;20480;-77
2022/03/11 10:56:35;;;;;;;24.77;11.18;;;;;;;10.56;45.82;101143.72;5029417;28;20021;-78
2022/03/11 10:59:12;;;;;;;25.27;10.45;;;;;;;10.63;46.19;101139.63;5035651;28;20036;-77
2022/03/11 11:01:42;;;;;;;23.63;10.20;;;;;;;10.71;45.98;101137.28;5047268;28;20035;-77
2022/03/11 11:04:13;;;;;;;24.05;10.65;;;;;;;10.75;46.01;101129.88;5066308;28;20020;-77
2022/03/11 11:06:38;;;;;;;23.67;10.25;;;;;;;10.80;45.92;101128.56;5051561;28;20067;-77
2022/03/11 11:09:05;;;;;;;25.63;11.55;;;;;;;10.81;46.15;101130.28;5029303;28;20076;-71
2022/03/11 11:11:31;;;;;;;25.67;11.43;;;;;;;10.78;45.56;101135.88;5046733;28;20035;-73
2022/03/11 11:14:05;;;;;;;25.85;12.43;;;;;;;10.81;47.01;101134.81;5046147;28;20029;-72
2022/03/11 11:16:33;;;;;;;29.13;12.32;;;;;;;10.84;46.13;101130.06;5038094;28;20071;-71
2022/03/11 11:18:59;;;;;;;25.30;13.00;;;;;;;10.87;46.67;101126.31;5051706;28;20033;-72